Time;durP1;ratioP1;P1;durP2;ratioP2;P2;SDS_P1;SDS_P2;PMS_P1;PMS_P2;Temp;Humidity;BMP_temperature;BMP_pressure;BME280_temperature;BME280_humidity;BME280_pressure;Samples;Min_cycle;Max_cycle;Signal;HPM_P1;HPM_P2
2024/02/15 00:02:23;;;;;;;10.60;9.17;;;12.10;99.90;;;;;;5022551;28;20571;-73
2024/02/15 00:04:48;;;;;;;9.10;8.17;;;12.10;99.90;;;;;;5026059;28;20518;-69
2024/02/15 00:07:14;;;;;;;9.77;8.80;;;12.10;99.90;;;;;;5027108;28;20210;-67
2024/02/15 00:09:40;;;;;;;9.10;8.07;;;12.10;99.90;;;;;;5029059;28;20683;-67
2024/02/15 00:12:06;;;;;;;10.03;9.10;;;12.10;99.90;;;;;;5027495;28;20183;-67
2024/02/15 00:14:31;;;;;;;8.90;8.00;;;12.20;99.90;;;;;;5029553;28;20190;-66
2024/02/15 00:16:58;;;;;;;10.40;7.77;;;12.10;99.90;;;;;;5028973;28;20944;-67
2024/02/15 00:19:23;;;;;;;10.17;7.77;;;12.20;99.90;;;;;;5031395;28;20178;-69
2024/02/15 00:21:50;;;;;;;9.57;7.97;;;12.10;99.90;;;;;;5031922;28;20425;-67
2024/02/15 00:24:15;;;;;;;10.60;8.40;;;12.10;99.90;;;;;;5030621;28;20457;-68
2024/02/15 00:26:44;;;;;;;10.40;8.47;;;12.10;99.90;;;;;;5032643;28;20563;-67
2024/02/15 00:29:10;;;;;;;8.60;7.70;;;12.10;99.90;;;;;;5030100;28;20217;-68
2024/02/15 00:31:35;;;;;;;10.03;8.90;;;12.10;99.90;;;;;;5031253;28;20513;-65
2024/02/15 00:34:02;;;;;;;9.90;8.10;;;12.10;99.90;;;;;;5031400;28;20317;-70
2024/02/15 00:36:29;;;;;;;10.73;9.20;;;12.10;99.90;;;;;;5030854;28;20706;-71
2024/02/15 00:38:55;;;;;;;11.63;8.87;;;12.10;99.90;;;;;;5030801;28;20429;-66
2024/02/15 00:41:21;;;;;;;11.57;9.23;;;12.10;99.90;;;;;;5029785;28;20428;-70
2024/02/15 00:43:47;;;;;;;9.70;8.70;;;12.10;99.90;;;;;;5032488;28;20432;-71
2024/02/15 00:46:14;;;;;;;13.53;9.73;;;12.10;99.90;;;;;;5029807;28;20732;-68
2024/02/15 00:48:40;;;;;;;11.50;9.00;;;12.10;99.90;;;;;;5030142;28;20433;-72
2024/02/15 00:51:06;;;;;;;9.57;8.67;;;12.10;99.90;;;;;;5028255;28;20439;-66
2024/02/15 00:53:32;;;;;;;11.60;9.00;;;12.10;99.90;;;;;;5030878;28;20421;-67
2024/02/15 00:55:58;;;;;;;9.17;8.27;;;12.10;99.90;;;;;;5028559;28;20946;-67
2024/02/15 00:58:25;;;;;;;13.57;8.70;;;12.10;99.90;;;;;;5030196;28;20421;-69
2024/02/15 01:00:50;;;;;;;10.07;8.90;;;12.10;99.90;;;;;;5028212;28;20248;-70
2024/02/15 01:03:16;;;;;;;10.20;9.07;;;12.10;99.90;;;;;;5028598;28;20432;-67
2024/02/15 01:05:42;;;;;;;9.80;8.03;;;12.10;99.90;;;;;;5030213;28;20217;-66
2024/02/15 01:08:08;;;;;;;12.80;8.83;;;12.10;99.90;;;;;;5029414;28;20425;-70
2024/02/15 01:10:35;;;;;;;8.90;8.10;;;12.10;99.90;;;;;;5031106;28;20972;-66
2024/02/15 01:13:00;;;;;;;14.47;8.80;;;12.20;99.90;;;;;;5031637;28;20931;-69
2024/02/15 01:15:26;;;;;;;17.87;8.60;;;12.10;99.90;;;;;;5031248;28;20448;-71
2024/02/15 01:17:52;;;;;;;9.77;8.40;;;12.10;99.90;;;;;;5030181;28;20227;-70
2024/02/15 01:20:17;;;;;;;9.27;8.40;;;12.10;99.90;;;;;;5031136;28;20178;-68
2024/02/15 01:22:44;;;;;;;12.50;8.50;;;12.10;99.90;;;;;;5032098;28;20190;-70
2024/02/15 01:25:10;;;;;;;10.70;8.50;;;12.10;99.90;;;;;;5032355;28;20188;-65
2024/02/15 01:27:37;;;;;;;11.87;9.50;;;12.10;99.90;;;;;;5031634;28;20479;-69
2024/02/15 01:30:04;;;;;;;9.80;8.80;;;12.10;99.90;;;;;;5029126;28;20427;-67
2024/02/15 01:32:30;;;;;;;13.33;9.13;;;12.10;99.90;;;;;;5032182;28;20444;-70
2024/02/15 01:34:56;;;;;;;11.20;9.47;;;12.20;99.90;;;;;;5031400;28;20504;-67
2024/02/15 01:37:22;;;;;;;10.80;9.00;;;12.20;99.90;;;;;;5031631;28;20535;-70
2024/02/15 01:39:48;;;;;;;18.60;9.40;;;12.20;99.90;;;;;;5032518;28;20494;-70
2024/02/15 01:42:14;;;;;;;10.23;9.23;;;12.20;99.90;;;;;;5030706;28;20240;-65
2024/02/15 01:44:40;;;;;;;11.90;8.37;;;12.20;99.90;;;;;;5031227;28;20428;-66
2024/02/15 01:47:08;;;;;;;10.13;9.10;;;12.20;99.90;;;;;;5030441;28;20230;-67
2024/02/15 01:49:34;;;;;;;13.77;10.30;;;12.20;99.90;;;;;;5031833;28;20429;-70
2024/02/15 01:52:01;;;;;;;10.27;9.07;;;12.20;99.90;;;;;;5030286;28;20424;-69
2024/02/15 01:54:27;;;;;;;10.63;9.60;;;12.30;99.90;;;;;;5031289;28;20229;-64
2024/02/15 01:56:54;;;;;;;12.77;9.93;;;12.30;99.90;;;;;;5030881;28;20433;-73
2024/02/15 01:59:22;;;;;;;12.07;9.67;;;12.30;99.90;;;;;;5030327;28;20432;-67
2024/02/15 02:01:48;;;;;;;10.90;9.83;;;12.30;99.90;;;;;;5031334;28;20428;-65
2024/02/15 02:04:15;;;;;;;14.10;9.47;;;12.30;99.90;;;;;;5031287;28;20425;-72
2024/02/15 02:06:41;;;;;;;14.90;11.40;;;12.30;99.90;;;;;;5031296;28;20960;-68
2024/02/15 02:09:12;;;;;;;13.73;10.60;;;12.30;99.90;;;;;;5030265;28;20454;-71
2024/02/15 02:11:38;;;;;;;12.43;11.13;;;12.30;99.90;;;;;;5031489;28;20557;-71
2024/02/15 02:14:04;;;;;;;11.57;10.33;;;12.30;99.90;;;;;;5031908;28;20530;-68
2024/02/15 02:16:35;;;;;;;14.33;12.07;;;12.30;99.90;;;;;;5029384;28;20521;-70
2024/02/15 02:19:01;;;;;;;13.47;12.00;;;12.30;99.90;;;;;;5031869;28;20186;-64
2024/02/15 02:21:28;;;;;;;12.60;11.30;;;12.30;99.90;;;;;;5029494;28;20424;-67
2024/02/15 02:23:56;;;;;;;13.27;10.57;;;12.30;99.90;;;;;;5032064;28;20421;-71
2024/02/15 02:26:23;;;;;;;13.90;10.50;;;12.30;99.90;;;;;;5027894;28;20461;-68
2024/02/15 02:28:49;;;;;;;15.87;10.83;;;12.20;99.90;;;;;;5028572;28;20463;-70
2024/02/15 02:31:15;;;;;;;10.83;9.73;;;12.20;99.90;;;;;;5030233;28;20436;-68
2024/02/15 02:33:54;;;;;;;13.07;8.63;;;12.20;99.90;;;;;;5031984;28;20424;-69
2024/02/15 02:36:20;;;;;;;13.53;9.47;;;12.20;99.90;;;;;;5029680;28;20273;-69
2024/02/15 02:38:45;;;;;;;11.80;8.27;;;12.20;99.90;;;;;;5031482;28;20429;-69
2024/02/15 02:41:14;;;;;;;11.97;8.50;;;12.20;99.90;;;;;;5030248;28;20957;-68
2024/02/15 02:43:40;;;;;;;11.17;8.30;;;12.20;99.90;;;;;;5032151;28;20769;-70
2024/02/15 02:46:09;;;;;;;14.77;8.67;;;12.20;99.90;;;;;;5030190;28;20526;-64
2024/02/15 02:48:37;;;;;;;14.37;8.30;;;12.20;99.90;;;;;;5030387;28;20499;-66
2024/02/15 02:51:03;;;;;;;11.90;7.53;;;12.20;99.90;;;;;;5045236;28;20432;-66
2024/02/15 02:53:28;;;;;;;11.37;7.90;;;12.20;99.90;;;;;;5029945;28;20429;-69
2024/02/15 02:55:56;;;;;;;9.97;7.13;;;12.20;99.90;;;;;;5030924;28;20973;-67
2024/02/15 02:58:23;;;;;;;10.60;7.43;;;12.20;99.90;;;;;;5029037;28;20193;-70
2024/02/15 03:00:49;;;;;;;12.40;6.83;;;12.20;99.90;;;;;;5030696;28;20432;-67
2024/02/15 03:03:15;;;;;;;12.57;7.40;;;12.20;99.90;;;;;;5030578;28;20433;-69
2024/02/15 03:05:41;;;;;;;9.63;6.53;;;12.20;99.90;;;;;;5030797;28;20464;-68
2024/02/15 03:08:12;;;;;;;7.00;5.77;;;12.20;99.90;;;;;;5029782;28;20421;-72
2024/02/15 03:10:38;;;;;;;18.13;6.83;;;12.20;99.90;;;;;;5029427;28;20186;-70
2024/02/15 03:13:06;;;;;;;10.10;6.50;;;12.20;99.90;;;;;;5030466;28;20521;-68
2024/02/15 03:15:33;;;;;;;7.47;5.73;;;12.20;99.90;;;;;;5030240;28;20439;-71
2024/02/15 03:17:59;;;;;;;10.60;7.00;;;12.20;99.90;;;;;;5029535;28;20436;-70
2024/02/15 03:20:24;;;;;;;8.33;6.30;;;12.20;99.90;;;;;;5029550;28;20441;-69
2024/02/15 03:22:57;;;;;;;9.50;5.73;;;12.20;99.90;;;;;;5029751;28;20247;-67
2024/02/15 03:25:24;;;;;;;10.27;6.43;;;12.20;99.90;;;;;;5030170;28;20429;-68
2024/02/15 03:27:55;;;;;;;8.93;6.80;;;12.20;99.90;;;;;;5029340;28;20424;-69
2024/02/15 03:30:26;;;;;;;10.00;7.33;;;12.10;99.90;;;;;;5029912;28;20432;-67
2024/02/15 03:32:55;;;;;;;9.07;6.93;;;12.10;99.90;;;;;;5030909;28;20487;-73
2024/02/15 03:35:24;;;;;;;10.63;6.00;;;12.10;99.90;;;;;;5030208;28;20490;-67
2024/02/15 03:37:50;;;;;;;7.93;6.20;;;12.10;99.90;;;;;;5029160;28;20429;-68
2024/02/15 03:40:17;;;;;;;8.90;6.70;;;12.10;99.90;;;;;;5030420;28;20540;-69
2024/02/15 03:42:42;;;;;;;12.27;7.97;;;12.10;99.90;;;;;;5029115;28;20920;-71
2024/02/15 03:45:08;;;;;;;8.50;6.70;;;12.20;99.90;;;;;;5029839;28;20431;-69
2024/02/15 03:47:38;;;;;;;10.17;7.10;;;12.20;99.90;;;;;;5029436;28;20226;-69
2024/02/15 03:50:11;;;;;;;13.63;6.30;;;12.20;99.90;;;;;;5029732;28;20421;-73
2024/02/15 03:52:37;;;;;;;8.73;5.80;;;12.20;99.90;;;;;;5031527;28;20583;-69
2024/02/15 03:55:04;;;;;;;7.60;6.00;;;12.20;99.90;;;;;;5034101;28;21305;-68
2024/02/15 03:57:29;;;;;;;8.13;6.17;;;12.20;99.90;;;;;;5032297;28;20443;-67
2024/02/15 03:59:58;;;;;;;6.43;5.77;;;12.20;99.90;;;;;;5034351;28;20421;-73
2024/02/15 04:02:29;;;;;;;9.93;6.20;;;12.30;99.90;;;;;;5033084;28;20194;-67
2024/02/15 04:04:55;;;;;;;8.13;6.13;;;12.30;99.90;;;;;;5033686;28;20548;-70
2024/02/15 04:07:26;;;;;;;9.33;5.53;;;12.20;99.90;;;;;;5034012;28;21005;-69
2024/02/15 04:09:53;;;;;;;11.43;5.80;;;12.20;99.90;;;;;;5034031;28;20503;-65
2024/02/15 04:12:18;;;;;;;7.63;5.00;;;12.20;99.90;;;;;;5033110;28;20466;-67
2024/02/15 04:14:45;;;;;;;8.07;5.73;;;12.20;99.90;;;;;;5033484;28;20429;-70
2024/02/15 04:17:15;;;;;;;6.30;4.80;;;12.30;99.90;;;;;;5033656;28;20181;-69
2024/02/15 04:19:41;;;;;;;9.20;5.00;;;12.20;99.90;;;;;;5032974;28;20435;-69
2024/02/15 04:22:10;;;;;;;6.57;4.93;;;12.20;99.90;;;;;;5033341;28;20511;-70
2024/02/15 04:24:39;;;;;;;10.37;5.10;;;12.20;99.90;;;;;;5032075;28;20248;-70
2024/02/15 04:27:11;;;;;;;5.57;4.70;;;12.20;99.90;;;;;;5032604;28;20997;-70
2024/02/15 04:29:40;;;;;;;14.10;5.10;;;12.30;99.90;;;;;;5031428;28;20440;-67
2024/02/15 04:32:09;;;;;;;7.80;4.30;;;12.30;99.90;;;;;;5033986;28;20429;-67
2024/02/15 04:34:39;;;;;;;10.27;5.13;;;12.30;99.90;;;;;;5033488;28;20828;-70
2024/02/15 04:37:08;;;;;;;4.67;4.13;;;12.30;99.90;;;;;;5064925;28;20779;-69
2024/02/15 04:39:36;;;;;;;7.43;4.47;;;12.30;99.90;;;;;;5033619;28;20427;-67
2024/02/15 04:42:04;;;;;;;7.70;4.50;;;12.30;99.90;;;;;;5034599;28;20428;-70
2024/02/15 04:44:34;;;;;;;7.90;4.10;;;12.30;99.90;;;;;;5034223;28;21201;-67
2024/02/15 04:47:03;;;;;;;5.27;4.07;;;12.30;99.90;;;;;;5033466;28;20981;-69
2024/02/15 04:49:29;;;;;;;6.43;3.63;;;12.30;99.90;;;;;;5033669;28;21066;-69
2024/02/15 04:51:57;;;;;;;5.33;3.30;;;12.30;99.90;;;;;;5033721;28;20426;-68
2024/02/15 04:54:23;;;;;;;7.67;3.83;;;12.30;99.90;;;;;;5034566;28;20214;-68
2024/02/15 04:56:50;;;;;;;4.80;3.60;;;12.30;99.90;;;;;;5031558;28;20452;-66
2024/02/15 04:59:16;;;;;;;5.80;3.63;;;12.30;99.90;;;;;;5033856;28;20434;-69
2024/02/15 05:01:45;;;;;;;6.70;3.83;;;12.30;99.90;;;;;;5032936;28;20447;-71
2024/02/15 05:04:11;;;;;;;5.53;2.90;;;12.30;99.90;;;;;;5032754;28;20213;-69
2024/02/15 05:06:38;;;;;;;6.60;3.43;;;12.30;99.90;;;;;;5032837;28;21429;-70
2024/02/15 05:09:09;;;;;;;9.83;3.03;;;12.30;99.90;;;;;;5034632;28;21343;-68
2024/02/15 05:11:36;;;;;;;4.53;3.07;;;12.30;99.90;;;;;;5032898;28;20805;-71
2024/02/15 05:14:06;;;;;;;6.23;2.80;;;12.30;99.90;;;;;;5033762;28;21212;-70
2024/02/15 05:16:33;;;;;;;6.33;3.70;;;12.30;99.90;;;;;;5032096;28;20424;-70
2024/02/15 05:18:59;;;;;;;7.03;3.20;;;12.30;99.90;;;;;;5031810;28;20449;-67
2024/02/15 05:21:24;;;;;;;5.40;2.93;;;12.40;99.90;;;;;;5032658;28;20453;-68
2024/02/15 05:23:52;;;;;;;3.30;2.37;;;12.40;99.90;;;;;;5031972;28;20189;-70
2024/02/15 05:26:23;;;;;;;5.17;3.03;;;12.30;99.90;;;;;;5026353;28;20248;-65
2024/02/15 05:28:49;;;;;;;7.70;4.00;;;12.30;99.90;;;;;;5030183;28;20429;-65
2024/02/15 05:31:25;;;;;;;4.37;3.17;;;12.30;99.90;;;;;;5032285;28;20951;-67
2024/02/15 05:33:51;;;;;;;2.93;2.40;;;12.30;99.90;;;;;;5032040;28;20439;-69
2024/02/15 05:36:22;;;;;;;6.40;2.80;;;12.30;99.90;;;;;;5031573;28;20429;-67
2024/02/15 05:38:51;;;;;;;7.10;2.87;;;12.20;99.90;;;;;;5032753;28;20429;-70
2024/02/15 05:41:17;;;;;;;4.70;2.90;;;12.30;99.90;;;;;;5032465;28;20460;-66
2024/02/15 05:43:42;;;;;;;7.20;3.13;;;12.30;99.90;;;;;;5031489;28;20463;-70
2024/02/15 05:46:09;;;;;;;4.53;2.60;;;12.30;99.90;;;;;;5029437;28;20215;-67
2024/02/15 05:48:36;;;;;;;5.03;2.73;;;12.30;99.90;;;;;;5030537;28;20198;-71
2024/02/15 05:51:06;;;;;;;7.13;3.00;;;12.30;99.90;;;;;;5030649;28;20458;-70
2024/02/15 05:53:35;;;;;;;3.40;2.50;;;12.20;99.90;;;;;;5030746;28;20960;-70
2024/02/15 05:56:04;;;;;;;6.50;2.93;;;12.20;99.90;;;;;;5028380;28;20429;-70
2024/02/15 05:58:33;;;;;;;5.97;2.53;;;12.20;99.90;;;;;;5029698;28;20486;-69
2024/02/15 06:01:02;;;;;;;5.10;2.60;;;12.30;99.90;;;;;;5031749;28;20528;-69
2024/02/15 06:03:33;;;;;;;4.97;2.80;;;12.30;99.90;;;;;;5031378;28;21068;-65
2024/02/15 06:06:06;;;;;;;3.87;2.80;;;12.30;99.90;;;;;;5031029;28;20569;-70
2024/02/15 06:08:32;;;;;;;3.60;2.57;;;12.20;99.90;;;;;;5032479;28;20998;-70
2024/02/15 06:10:58;;;;;;;6.40;3.20;;;12.20;99.90;;;;;;5031324;28;20431;-64
2024/02/15 06:13:26;;;;;;;5.47;2.60;;;12.20;99.90;;;;;;5032441;28;20775;-65
2024/02/15 06:15:53;;;;;;;4.47;2.90;;;12.20;99.90;;;;;;5031057;28;20435;-68
2024/02/15 06:18:32;;;;;;;4.87;2.50;;;12.20;99.90;;;;;;5031914;28;20524;-67
2024/02/15 06:21:00;;;;;;;3.80;2.73;;;12.20;99.90;;;;;;5031460;28;20513;-70
2024/02/15 06:23:27;;;;;;;6.13;2.63;;;12.20;99.90;;;;;;5031668;28;20425;-69
2024/02/15 06:25:56;;;;;;;4.10;3.23;;;12.20;99.90;;;;;;5031666;28;21041;-67
2024/02/15 06:39:41;;;;;;;4.83;2.80;;;12.20;99.90;;;;;;5028964;28;20447;-69
2024/02/15 06:42:26;;;;;;;7.37;3.37;;;12.20;99.90;;;;;;5030423;28;20483;-69
2024/02/15 06:44:52;;;;;;;5.50;3.17;;;12.20;99.90;;;;;;5029043;28;20189;-67
2024/02/15 06:47:19;;;;;;;4.80;2.80;;;12.20;99.90;;;;;;5026014;28;20480;-69
2024/02/15 06:49:46;;;;;;;5.97;3.40;;;12.20;99.90;;;;;;5062063;28;20189;-69
2024/02/15 06:52:11;;;;;;;5.23;3.20;;;12.20;99.90;;;;;;5028053;28;20436;-68
2024/02/15 06:54:38;;;;;;;5.53;2.93;;;12.30;99.90;;;;;;5029787;28;20439;-67
2024/02/15 06:57:04;;;;;;;9.63;3.80;;;12.30;99.90;;;;;;5029421;28;20189;-68
2024/02/15 06:59:34;;;;;;;4.93;3.40;;;12.20;99.90;;;;;;5030811;28;21307;-68
2024/02/15 07:02:01;;;;;;;4.93;3.20;;;12.30;99.90;;;;;;5029865;28;20856;-68
2024/02/15 07:04:27;;;;;;;7.13;2.90;;;12.20;99.90;;;;;;5029142;28;20490;-71
2024/02/15 07:06:54;;;;;;;4.63;2.83;;;12.20;99.90;;;;;;5030601;28;20488;-68
2024/02/15 07:09:22;;;;;;;4.07;2.60;;;12.20;99.90;;;;;;5031053;28;21323;-68
2024/02/15 07:11:48;;;;;;;4.67;2.80;;;12.20;99.90;;;;;;5030398;28;20472;-69
2024/02/15 07:14:15;;;;;;;4.70;2.60;;;12.20;99.90;;;;;;5030776;28;20427;-67
2024/02/15 07:16:48;;;;;;;4.50;3.00;;;12.10;99.90;;;;;;5030376;28;20490;-70
2024/02/15 07:19:15;;;;;;;8.30;3.20;;;12.10;99.90;;;;;;5030693;28;20462;-70
2024/02/15 07:21:41;;;;;;;4.27;2.80;;;12.20;99.90;;;;;;5028782;28;20443;-67
2024/02/15 07:24:07;;;;;;;4.00;2.93;;;12.20;99.90;;;;;;5029380;28;20433;-67
2024/02/15 07:26:35;;;;;;;3.43;2.70;;;12.10;99.90;;;;;;5031061;28;20573;-69
2024/02/15 07:29:01;;;;;;;6.70;3.17;;;12.10;99.90;;;;;;5032806;28;20526;-69
2024/02/15 07:31:29;;;;;;;4.20;3.27;;;12.20;99.90;;;;;;5034763;28;20430;-66
2024/02/15 07:33:55;;;;;;;5.83;2.80;;;12.10;99.90;;;;;;5034994;28;20941;-69
2024/02/15 07:36:22;;;;;;;6.10;3.33;;;12.10;99.90;;;;;;5032445;28;20435;-66
2024/02/15 07:38:48;;;;;;;3.63;2.67;;;12.10;99.90;;;;;;5035124;28;20494;-73
2024/02/15 07:41:23;;;;;;;9.27;2.97;;;12.20;99.90;;;;;;5032731;28;20479;-69
2024/02/15 07:43:50;;;;;;;22.17;5.10;;;12.20;99.90;;;;;;5033566;28;21023;-70
2024/02/15 07:46:16;;;;;;;6.07;3.17;;;12.20;99.90;;;;;;5031147;28;20468;-70
2024/02/15 07:48:45;;;;;;;5.13;2.83;;;12.10;99.90;;;;;;5034045;28;21158;-67
2024/02/15 07:51:16;;;;;;;8.87;3.80;;;12.10;99.90;;;;;;5032382;28;20429;-64
2024/02/15 07:53:42;;;;;;;5.50;3.10;;;12.00;99.90;;;;;;5033962;28;21025;-65
2024/02/15 07:56:11;;;;;;;5.33;3.67;;;12.00;99.90;;;;;;5033101;28;20476;-70
2024/02/15 07:58:47;;;;;;;5.80;3.23;;;11.90;99.90;;;;;;5033171;28;20539;-71
2024/02/15 08:01:14;;;;;;;5.77;3.17;;;11.90;99.90;;;;;;5016271;28;20490;-67
2024/02/15 08:03:46;;;;;;;5.93;3.27;;;11.90;99.90;;;;;;5034227;28;20486;-69
2024/02/15 08:06:12;;;;;;;6.07;3.10;;;12.00;99.90;;;;;;5032851;28;20494;-68
2024/02/15 08:08:45;;;;;;;4.30;2.60;;;12.00;99.90;;;;;;5033735;28;20440;-68
2024/02/15 08:11:14;;;;;;;4.63;3.10;;;12.00;99.90;;;;;;5032301;28;20519;-70
2024/02/15 08:13:49;;;;;;;4.53;3.07;;;12.00;99.90;;;;;;5033079;28;20435;-67
2024/02/15 08:16:24;;;;;;;4.87;3.27;;;12.10;99.90;;;;;;5032407;28;20541;-68
2024/02/15 08:18:54;;;;;;;5.80;2.87;;;12.00;99.90;;;;;;5032952;28;20460;-68
2024/02/15 08:21:27;;;;;;;3.80;2.70;;;12.00;99.90;;;;;;5032655;28;20923;-68
2024/02/15 08:23:52;;;;;;;4.10;2.60;;;12.00;99.90;;;;;;5033931;28;20935;-67
2024/02/15 08:26:18;;;;;;;7.57;2.73;;;12.00;99.90;;;;;;5030569;28;20572;-67
2024/02/15 08:28:44;;;;;;;6.67;2.80;;;12.10;99.90;;;;;;5031560;28;20210;-70
2024/02/15 08:31:11;;;;;;;5.20;2.80;;;12.10;99.90;;;;;;5033161;28;20722;-67
2024/02/15 08:33:38;;;;;;;4.00;2.43;;;12.20;99.90;;;;;;5033439;28;20178;-71
2024/02/15 08:36:05;;;;;;;5.10;2.40;;;12.20;99.90;;;;;;5033252;28;20428;-69
2024/02/15 08:38:31;;;;;;;3.60;2.53;;;12.20;99.90;;;;;;5031130;28;21113;-70
2024/02/15 08:40:56;;;;;;;4.53;2.13;;;12.20;99.90;;;;;;5032613;28;20433;-67
2024/02/15 08:43:23;;;;;;;4.97;2.40;;;12.20;99.90;;;;;;5032431;28;20269;-72
2024/02/15 08:45:50;;;;;;;4.60;2.40;;;12.30;99.90;;;;;;5032202;28;20559;-71
2024/02/15 08:48:16;;;;;;;4.87;2.63;;;12.30;99.90;;;;;;5031389;28;20441;-70
2024/02/15 08:50:42;;;;;;;6.73;3.03;;;12.20;99.90;;;;;;5031170;28;20435;-69
2024/02/15 08:53:08;;;;;;;4.00;2.70;;;12.20;99.90;;;;;;5032935;28;21021;-70
2024/02/15 08:55:35;;;;;;;5.17;2.70;;;12.30;99.90;;;;;;5031032;28;20896;-66
2024/02/15 08:58:02;;;;;;;3.83;2.70;;;12.30;99.90;;;;;;5031049;28;20868;-70
2024/02/15 09:00:28;;;;;;;13.60;3.37;;;12.30;99.90;;;;;;5030750;28;21298;-68
2024/02/15 09:02:53;;;;;;;13.33;3.40;;;12.30;99.90;;;;;;5033124;28;20439;-70
2024/02/15 09:05:22;;;;;;;3.30;2.03;;;12.30;99.90;;;;;;5032223;28;20183;-69
2024/02/15 09:07:48;;;;;;;3.90;2.37;;;12.30;99.90;;;;;;5031749;28;20218;-69
2024/02/15 09:10:14;;;;;;;2.90;1.97;;;12.40;99.90;;;;;;5032530;28;20436;-67
2024/02/15 09:12:42;;;;;;;9.33;2.63;;;12.30;99.90;;;;;;5032148;28;20432;-67
2024/02/15 09:15:08;;;;;;;3.53;2.83;;;12.40;99.90;;;;;;5031164;28;20444;-68
2024/02/15 09:17:38;;;;;;;3.83;2.17;;;12.30;99.90;;;;;;5031245;28;20425;-70
2024/02/15 09:20:15;;;;;;;50.23;7.00;;;12.40;99.90;;;;;;5032430;28;20433;-68
2024/02/15 09:22:42;;;;;;;5.43;2.67;;;12.40;99.90;;;;;;5032056;28;20958;-68
2024/02/15 09:25:09;;;;;;;6.77;2.60;;;12.30;99.90;;;;;;5032484;28;20453;-66
2024/02/15 09:27:34;;;;;;;3.30;2.23;;;12.40;99.90;;;;;;5030607;28;20493;-70
2024/02/15 09:30:00;;;;;;;9.03;2.40;;;12.30;99.90;;;;;;5029662;28;20939;-70
2024/02/15 09:32:26;;;;;;;6.13;2.63;;;12.30;99.90;;;;;;5013889;28;20179;-71
2024/02/15 09:34:51;;;;;;;15.10;3.83;;;12.30;99.90;;;;;;5032456;28;20198;-68
2024/02/15 09:37:17;;;;;;;18.87;3.63;;;12.30;99.90;;;;;;5021334;28;20182;-68
2024/02/15 09:39:43;;;;;;;6.30;2.53;;;12.30;99.90;;;;;;5030377;28;20703;-71
2024/02/15 09:42:09;;;;;;;3.67;2.50;;;12.40;99.90;;;;;;5030547;28;21050;-69
2024/02/15 09:44:34;;;;;;;4.20;2.47;;;12.40;99.90;;;;;;5031166;28;20182;-68
2024/02/15 09:47:05;;;;;;;3.37;2.10;;;12.40;99.90;;;;;;5030882;28;20518;-71
2024/02/15 09:49:40;;;;;;;3.90;2.03;;;12.40;99.90;;;;;;5030295;28;20182;-69
2024/02/15 09:52:15;;;;;;;6.40;2.70;;;12.40;99.90;;;;;;5031581;28;20439;-70
2024/02/15 09:54:45;;;;;;;4.77;2.77;;;12.40;99.90;;;;;;5030951;28;20428;-69
2024/02/15 09:57:11;;;;;;;3.03;2.37;;;12.40;99.90;;;;;;5062682;28;20816;-72
2024/02/15 09:59:38;;;;;;;5.37;2.63;;;12.30;99.90;;;;;;5030957;28;20528;-70
2024/02/15 10:02:09;;;;;;;3.17;2.20;;;12.30;99.90;;;;;;5031607;28;20447;-68
2024/02/15 10:04:35;;;;;;;6.33;2.57;;;12.40;99.90;;;;;;5030334;28;20445;-69
2024/02/15 10:07:00;;;;;;;3.87;2.53;;;12.40;99.90;;;;;;5031073;28;20472;-69
2024/02/15 10:09:30;;;;;;;3.93;2.60;;;12.40;99.90;;;;;;5030637;28;20221;-70
2024/02/15 10:11:57;;;;;;;10.23;2.53;;;12.50;99.90;;;;;;5031170;28;20292;-65
2024/02/15 10:14:26;;;;;;;3.20;2.50;;;12.50;99.90;;;;;;5030335;28;20977;-69
2024/02/15 10:16:56;;;;;;;2.30;2.10;;;12.50;99.90;;;;;;5030377;28;20433;-70
2024/02/15 10:19:25;;;;;;;3.30;2.10;;;12.50;99.90;;;;;;5031235;28;20437;-67
2024/02/15 10:21:55;;;;;;;3.40;1.97;;;12.50;99.90;;;;;;5030406;28;20441;-68
2024/02/15 10:24:24;;;;;;;4.00;1.70;;;12.50;99.90;;;;;;5031283;28;20840;-70
2024/02/15 10:26:50;;;;;;;7.50;2.20;;;12.50;99.90;;;;;;5030281;28;20570;-70
2024/02/15 10:29:17;;;;;;;5.27;2.27;;;12.50;99.90;;;;;;5027936;28;20798;-68
2024/02/15 10:32:00;;;;;;;4.23;2.23;;;12.50;99.90;;;;;;5029117;28;20435;-66
2024/02/15 10:34:30;;;;;;;3.37;2.40;;;12.60;99.90;;;;;;5030406;28;20439;-73
2024/02/15 10:37:20;;;;;;;2.23;1.67;;;12.50;99.90;;;;;;5029736;28;20424;-68
2024/02/15 10:39:46;;;;;;;2.50;1.90;;;12.50;99.90;;;;;;5029637;28;20433;-70
2024/02/15 10:42:14;;;;;;;3.60;2.10;;;12.60;99.90;;;;;;5030497;28;20425;-69
2024/02/15 10:44:40;;;;;;;4.37;1.80;;;12.60;99.90;;;;;;5030034;28;20490;-67
2024/02/15 10:47:07;;;;;;;5.30;2.20;;;12.60;99.90;;;;;;5029784;28;20476;-70
2024/02/15 10:49:36;;;;;;;4.37;1.90;;;12.60;99.90;;;;;;5013229;28;20495;-66
2024/02/15 10:52:06;;;;;;;68.43;8.97;;;12.70;99.90;;;;;;5029583;28;20532;-69
2024/02/15 10:54:50;;;;;;;63.80;10.03;;;12.80;99.90;;;;;;5029941;28;20433;-70
2024/02/15 10:57:25;;;;;;;4.30;2.03;;;12.80;99.90;;;;;;5029965;28;20442;-68
2024/02/15 11:00:01;;;;;;;2.40;2.10;;;12.90;99.90;;;;;;5029848;28;20429;-67
2024/02/15 11:02:31;;;;;;;3.53;1.97;;;12.90;99.90;;;;;;5028539;28;20454;-67
2024/02/15 11:05:14;;;;;;;3.83;1.67;;;12.90;99.90;;;;;;5030780;28;20439;-69
2024/02/15 11:07:40;;;;;;;3.10;1.87;;;12.90;99.90;;;;;;5028740;28;20972;-70
2024/02/15 11:10:10;;;;;;;4.27;1.67;;;12.90;99.90;;;;;;5029537;28;20467;-69
2024/02/15 11:12:37;;;;;;;3.20;2.10;;;13.00;99.90;;;;;;5027572;28;20473;-65
2024/02/15 11:15:06;;;;;;;6.07;2.30;;;13.00;99.90;;;;;;5028820;28;20930;-69
2024/02/15 11:17:43;;;;;;;3.67;1.93;;;13.00;99.90;;;;;;5029146;28;20931;-67
2024/02/15 11:20:11;;;;;;;2.63;1.80;;;13.10;99.90;;;;;;5029384;28;20447;-69
2024/02/15 11:22:38;;;;;;;4.60;1.97;;;13.00;99.90;;;;;;5028717;28;20470;-69
2024/02/15 11:25:08;;;;;;;3.90;1.97;;;13.10;99.90;;;;;;5027672;28;20441;-69
2024/02/15 11:27:38;;;;;;;2.70;2.00;;;13.10;99.90;;;;;;5027325;28;20469;-70
2024/02/15 11:30:09;;;;;;;3.60;1.97;;;13.10;99.90;;;;;;5026991;28;20431;-68
2024/02/15 11:32:44;;;;;;;6.40;1.90;;;13.10;99.90;;;;;;5027214;28;20974;-71
2024/02/15 11:35:14;;;;;;;2.70;1.67;;;13.20;99.90;;;;;;5029786;28;20495;-67
2024/02/15 11:40:16;;;;;;;3.60;2.03;;;13.10;99.90;;;;;;5029670;28;20430;-65
2024/02/15 11:42:46;;;;;;;1.97;1.30;;;13.20;99.90;;;;;;5029978;28;20516;-70
2024/02/15 11:45:12;;;;;;;3.30;1.87;;;13.20;99.90;;;;;;5031294;28;20433;-72
2024/02/15 11:47:43;;;;;;;2.80;2.00;;;13.30;99.90;;;;;;5030419;28;20482;-67
2024/02/15 11:50:14;;;;;;;3.53;1.77;;;13.20;99.90;;;;;;5030275;28;20440;-69
2024/02/15 11:52:42;;;;;;;4.00;2.13;;;13.20;99.90;;;;;;5030276;28;20857;-68
2024/02/15 11:55:10;;;;;;;3.07;1.93;;;13.20;99.90;;;;;;5031301;28;20436;-65
2024/02/15 11:57:47;;;;;;;2.40;1.73;;;13.30;99.90;;;;;;5029765;28;20925;-65
2024/02/15 12:19:55;;;;;;;2.50;1.60;;;13.30;99.90;;;;;;5065072;28;20907;-68
2024/02/15 12:22:30;;;;;;;4.50;2.07;;;13.40;99.90;;;;;;5033301;28;20788;-68
2024/02/15 12:25:01;;;;;;;4.90;1.77;;;13.40;99.90;;;;;;5033548;28;20554;-73
2024/02/15 12:27:27;;;;;;;2.60;1.63;;;13.60;99.90;;;;;;5032946;28;20468;-67
2024/02/15 12:29:57;;;;;;;2.83;1.97;;;13.70;99.90;;;;;;5031665;28;20441;-70
2024/02/15 12:32:24;;;;;;;1.97;1.40;;;13.80;99.90;;;;;;5032958;28;20186;-65
2024/02/15 12:34:54;;;;;;;4.47;1.77;;;13.90;99.90;;;;;;5048080;28;20440;-70
2024/02/15 12:37:23;;;;;;;3.20;1.80;;;13.90;99.90;;;;;;5031793;28;20440;-70
2024/02/15 12:39:50;;;;;;;3.63;1.60;;;14.10;99.90;;;;;;5030950;28;20493;-68
2024/02/15 12:42:19;;;;;;;4.17;1.97;;;14.10;99.90;;;;;;5032290;28;20791;-68
2024/02/15 12:44:48;;;;;;;4.13;2.00;;;14.20;99.90;;;;;;5034030;28;20443;-69
2024/02/15 12:47:22;;;;;;;1.97;1.40;;;14.20;99.90;;;;;;5032823;28;20475;-65
2024/02/15 12:49:50;;;;;;;3.47;2.00;;;14.30;99.90;;;;;;5033721;28;20428;-73
2024/02/15 12:52:35;;;;;;;3.10;1.77;;;14.40;99.90;;;;;;5031799;28;20463;-70
2024/02/15 12:55:12;;;;;;;2.50;2.00;;;14.40;99.90;;;;;;5031367;28;21230;-69
2024/02/15 12:57:41;;;;;;;1.73;1.37;;;14.40;99.90;;;;;;5033340;28;20810;-68
2024/02/15 13:00:13;;;;;;;4.57;2.10;;;14.50;99.90;;;;;;5030625;28;20451;-71
2024/02/15 13:02:39;;;;;;;1.57;1.27;;;14.50;99.90;;;;;;5032948;28;20538;-67
2024/02/15 13:05:08;;;;;;;3.37;1.43;;;14.50;99.90;;;;;;5029518;28;20521;-67
2024/02/15 13:07:34;;;;;;;2.67;1.10;;;14.50;99.90;;;;;;5030941;28;20828;-70
2024/02/15 13:10:00;;;;;;;4.40;1.60;;;14.70;99.90;;;;;;5030854;28;20487;-71
2024/02/15 13:12:28;;;;;;;4.53;1.40;;;14.70;99.90;;;;;;5031637;28;20944;-67
2024/02/15 13:14:54;;;;;;;3.40;1.83;;;14.70;99.90;;;;;;5031465;28;20551;-70
2024/02/15 13:17:20;;;;;;;4.27;1.50;;;14.80;99.90;;;;;;5029802;28;20429;-67
2024/02/15 13:19:49;;;;;;;4.37;1.50;;;14.90;99.90;;;;;;5031134;28;20189;-69
2024/02/15 13:22:21;;;;;;;5.43;1.63;;;14.90;99.90;;;;;;5029169;28;20439;-67